N66HR EDDW-EDXW
Flight info
| Callsign | N66HR |
|---|---|
| Flight time | 0h 30m |
| Altitude | 10000 |
| Route | EDDW/09 WSN1M WSN Y850 MUBZI M105 OMWEG DCT BADOS DCT OLDIP DCT EDXW/32 |
| Aircraft | SF50/L-V/N |
Departure
| Time | 2026-05-06 16:40 |
|---|---|
| Airport | Bremen Airport (EDDW) |
Arrival
| Time | 2026-05-06 17:10 |
|---|---|
| Airport | Westerland Sylt Airport (EDXW) |
| Time | Latitude | Longitude | Altitude | Speed | Heading |
|---|---|---|---|---|---|
| 2026-05-06 16:30 | 53.04990 | 8.78193 | 7 ft | 0 kts | 49° |
| 2026-05-06 16:36 | 53.05009 | 8.78213 | 7 ft | 7 kts | 1° |
| 2026-05-06 16:36 | 53.05086 | 8.78117 | 7 ft | 19 kts | 321° |
| 2026-05-06 16:36 | 53.05160 | 8.78000 | 7 ft | 9 kts | 277° |
| 2026-05-06 16:36 | 53.05126 | 8.77911 | 7 ft | 13 kts | 230° |
| 2026-05-06 16:37 | 53.05064 | 8.77795 | 7 ft | 13 kts | 231° |
| 2026-05-06 16:37 | 53.05002 | 8.77680 | 7 ft | 14 kts | 225° |
| 2026-05-06 16:37 | 53.04935 | 8.77565 | 9 ft | 11 kts | 219° |
| 2026-05-06 16:37 | 53.04875 | 8.77501 | 10 ft | 11 kts | 201° |
| 2026-05-06 16:38 | 53.04804 | 8.77464 | 10 ft | 9 kts | 195° |
| 2026-05-06 16:38 | 53.04743 | 8.77452 | 10 ft | 8 kts | 172° |
| 2026-05-06 16:38 | 53.04665 | 8.77520 | 10 ft | 13 kts | 106° |
| 2026-05-06 16:38 | 53.04662 | 8.77571 | 9 ft | 0 kts | 91° |
| 2026-05-06 16:39 | 53.04664 | 8.77643 | 7 ft | 31 kts | 89° |
| 2026-05-06 16:39 | 53.04680 | 8.78382 | 4 ft | 91 kts | 88° |
| 2026-05-06 16:39 | 53.04697 | 8.79623 | 139 ft | 124 kts | 81° |
| 2026-05-06 16:40 | 53.04733 | 8.81019 | 731 ft | 125 kts | 83° |
| 2026-05-06 16:40 | 53.04773 | 8.82542 | 1211 ft | 143 kts | 81° |
| 2026-05-06 16:40 | 53.04806 | 8.84273 | 1761 ft | 160 kts | 83° |
| 2026-05-06 16:40 | 53.04842 | 8.86199 | 2288 ft | 176 kts | 83° |
| 2026-05-06 16:41 | 53.04887 | 8.88311 | 2833 ft | 189 kts | 83° |
| 2026-05-06 16:41 | 53.04929 | 8.90545 | 3382 ft | 200 kts | 82° |
| 2026-05-06 16:41 | 53.04974 | 8.92888 | 3902 ft | 209 kts | 84° |
| 2026-05-06 16:41 | 53.05022 | 8.95315 | 4409 ft | 215 kts | 84° |
| 2026-05-06 16:42 | 53.05583 | 8.97504 | 4927 ft | 216 kts | 42° |
| 2026-05-06 16:42 | 53.06961 | 8.98490 | 5476 ft | 222 kts | 14° |
| 2026-05-06 16:42 | 53.08474 | 8.98928 | 6003 ft | 226 kts | 11° |
| 2026-05-06 16:42 | 53.10030 | 8.99288 | 6520 ft | 228 kts | 9° |
| 2026-05-06 16:43 | 53.11608 | 8.99597 | 7040 ft | 230 kts | 9° |
| 2026-05-06 16:43 | 53.13195 | 8.99380 | 7564 ft | 235 kts | 343° |
| 2026-05-06 16:43 | 53.14746 | 8.98556 | 8066 ft | 235 kts | 344° |
| 2026-05-06 16:43 | 53.16299 | 8.97709 | 8580 ft | 236 kts | 345° |
| 2026-05-06 16:44 | 53.17841 | 8.96860 | 9092 ft | 236 kts | 344° |
| 2026-05-06 16:44 | 53.19394 | 8.96001 | 9596 ft | 235 kts | 344° |
| 2026-05-06 16:44 | 53.20939 | 8.95142 | 10098 ft | 235 kts | 344° |
| 2026-05-06 16:44 | 53.22474 | 8.94290 | 10600 ft | 234 kts | 344° |
| 2026-05-06 16:45 | 53.24009 | 8.93438 | 11098 ft | 233 kts | 344° |
| 2026-05-06 16:45 | 53.25531 | 8.92593 | 11595 ft | 232 kts | 344° |
| 2026-05-06 16:45 | 53.27101 | 8.91894 | 11916 ft | 237 kts | 356° |
| 2026-05-06 16:45 | 53.28773 | 8.91577 | 11986 ft | 252 kts | 356° |
| 2026-05-06 16:46 | 53.30566 | 8.91281 | 11992 ft | 265 kts | 356° |
| 2026-05-06 16:46 | 53.32447 | 8.90984 | 11985 ft | 275 kts | 356° |
| 2026-05-06 16:46 | 53.34359 | 8.90688 | 11984 ft | 282 kts | 356° |
| 2026-05-06 16:46 | 53.36348 | 8.90385 | 11978 ft | 286 kts | 357° |
| 2026-05-06 16:47 | 53.38334 | 8.90079 | 11979 ft | 289 kts | 355° |
| 2026-05-06 16:47 | 53.40330 | 8.89766 | 11977 ft | 290 kts | 356° |
| 2026-05-06 16:47 | 53.42357 | 8.89451 | 11974 ft | 292 kts | 355° |
| 2026-05-06 16:47 | 53.44361 | 8.89135 | 11976 ft | 292 kts | 355° |
| 2026-05-06 16:48 | 53.46361 | 8.88825 | 12237 ft | 283 kts | 355° |
| 2026-05-06 16:48 | 53.48289 | 8.88525 | 12709 ft | 272 kts | 355° |
| 2026-05-06 16:48 | 53.50130 | 8.88241 | 13195 ft | 263 kts | 355° |
| 2026-05-06 16:48 | 53.51922 | 8.87960 | 13696 ft | 255 kts | 355° |
| 2026-05-06 16:49 | 53.53664 | 8.87690 | 14154 ft | 249 kts | 354° |
| 2026-05-06 16:49 | 53.55371 | 8.87426 | 14661 ft | 244 kts | 354° |
| 2026-05-06 16:49 | 53.57053 | 8.87166 | 14932 ft | 248 kts | 354° |
| 2026-05-06 16:49 | 53.58808 | 8.86887 | 14976 ft | 259 kts | 354° |
| 2026-05-06 16:50 | 53.60648 | 8.86603 | 14999 ft | 270 kts | 355° |
| 2026-05-06 16:50 | 53.62531 | 8.86299 | 15000 ft | 278 kts | 354° |
| 2026-05-06 16:50 | 53.64491 | 8.85995 | 14994 ft | 284 kts | 354° |
| 2026-05-06 16:50 | 53.65802 | 8.85787 | 14992 ft | 287 kts | 354° |
| 2026-05-06 16:51 | 53.68473 | 8.85369 | 14978 ft | 292 kts | 354° |
| 2026-05-06 16:51 | 53.70500 | 8.85050 | 15001 ft | 294 kts | 354° |
| 2026-05-06 16:51 | 53.72547 | 8.84730 | 14989 ft | 297 kts | 354° |
| 2026-05-06 16:51 | 53.74585 | 8.84408 | 14977 ft | 297 kts | 354° |
| 2026-05-06 16:52 | 53.76659 | 8.84082 | 14991 ft | 298 kts | 354° |
| 2026-05-06 16:52 | 53.78728 | 8.83756 | 15002 ft | 299 kts | 353° |
| 2026-05-06 16:52 | 53.80789 | 8.83429 | 14998 ft | 301 kts | 353° |
| 2026-05-06 16:52 | 53.82864 | 8.83102 | 14994 ft | 300 kts | 353° |
| 2026-05-06 16:53 | 53.84957 | 8.82770 | 15005 ft | 299 kts | 353° |
| 2026-05-06 16:53 | 53.87024 | 8.82442 | 15016 ft | 300 kts | 353° |
| 2026-05-06 16:53 | 53.89089 | 8.82113 | 15010 ft | 300 kts | 353° |
| 2026-05-06 16:53 | 53.91172 | 8.81783 | 14994 ft | 300 kts | 353° |
| 2026-05-06 16:54 | 53.93223 | 8.81457 | 14998 ft | 299 kts | 353° |
| 2026-05-06 16:54 | 53.95306 | 8.81125 | 14850 ft | 304 kts | 353° |
| 2026-05-06 16:54 | 53.97429 | 8.80786 | 14628 ft | 303 kts | 353° |
| 2026-05-06 16:54 | 53.99495 | 8.80458 | 14374 ft | 296 kts | 353° |
| 2026-05-06 16:55 | 54.01528 | 8.80134 | 14118 ft | 294 kts | 353° |
| 2026-05-06 16:55 | 54.03547 | 8.79811 | 13865 ft | 292 kts | 353° |
| 2026-05-06 16:55 | 54.05540 | 8.79493 | 13626 ft | 289 kts | 353° |
| 2026-05-06 16:55 | 54.07538 | 8.79173 | 13374 ft | 288 kts | 353° |
| 2026-05-06 16:56 | 54.09537 | 8.78852 | 13119 ft | 287 kts | 354° |
| 2026-05-06 16:56 | 54.11500 | 8.78537 | 12930 ft | 284 kts | 354° |
| 2026-05-06 16:56 | 54.13456 | 8.78225 | 12898 ft | 277 kts | 354° |
| 2026-05-06 16:56 | 54.15351 | 8.77921 | 12894 ft | 271 kts | 353° |
| 2026-05-06 16:57 | 54.17205 | 8.77622 | 12890 ft | 270 kts | 353° |
| 2026-05-06 16:57 | 54.19093 | 8.77318 | 12893 ft | 274 kts | 354° |
| 2026-05-06 16:57 | 54.20979 | 8.77014 | 12892 ft | 276 kts | 354° |
| 2026-05-06 16:57 | 54.22924 | 8.76701 | 12900 ft | 278 kts | 354° |
| 2026-05-06 16:58 | 54.24845 | 8.76390 | 12735 ft | 282 kts | 354° |
| 2026-05-06 16:58 | 54.26801 | 8.76073 | 12360 ft | 286 kts | 354° |
| 2026-05-06 16:58 | 54.28787 | 8.75751 | 11983 ft | 284 kts | 354° |
| 2026-05-06 16:58 | 54.30735 | 8.75437 | 11613 ft | 281 kts | 354° |
| 2026-05-06 16:59 | 54.32679 | 8.75122 | 11236 ft | 279 kts | 354° |
| 2026-05-06 16:59 | 54.34589 | 8.74812 | 10858 ft | 278 kts | 354° |
| 2026-05-06 16:59 | 54.36495 | 8.74503 | 10483 ft | 276 kts | 354° |
| 2026-05-06 16:59 | 54.38427 | 8.74189 | 10092 ft | 276 kts | 354° |
| 2026-05-06 17:00 | 54.40313 | 8.73881 | 9721 ft | 275 kts | 354° |
| 2026-05-06 17:00 | 54.42215 | 8.73571 | 9341 ft | 274 kts | 355° |
| 2026-05-06 17:00 | 54.44104 | 8.73263 | 8970 ft | 273 kts | 355° |
| 2026-05-06 17:00 | 54.45987 | 8.72956 | 8592 ft | 273 kts | 355° |
| 2026-05-06 17:01 | 54.47852 | 8.72652 | 8215 ft | 270 kts | 355° |
| 2026-05-06 17:01 | 54.49706 | 8.72351 | 7827 ft | 268 kts | 355° |
| 2026-05-06 17:01 | 54.51545 | 8.72051 | 7448 ft | 266 kts | 356° |
| 2026-05-06 17:01 | 54.53383 | 8.71751 | 7065 ft | 265 kts | 356° |
| 2026-05-06 17:02 | 54.55217 | 8.71451 | 6682 ft | 264 kts | 356° |
| 2026-05-06 17:02 | 54.57026 | 8.71154 | 6305 ft | 261 kts | 356° |
| 2026-05-06 17:02 | 54.58837 | 8.70857 | 5913 ft | 258 kts | 356° |
| 2026-05-06 17:02 | 54.60599 | 8.70568 | 5531 ft | 256 kts | 356° |
| 2026-05-06 17:03 | 54.62270 | 8.69673 | 5144 ft | 252 kts | 328° |
| 2026-05-06 17:03 | 54.63643 | 8.68053 | 4748 ft | 228 kts | 327° |
| 2026-05-06 17:03 | 54.64898 | 8.66531 | 4486 ft | 217 kts | 328° |
| 2026-05-06 17:03 | 54.66096 | 8.65074 | 4218 ft | 207 kts | 328° |
| 2026-05-06 17:04 | 54.67248 | 8.63670 | 3955 ft | 201 kts | 328° |
| 2026-05-06 17:04 | 54.68383 | 8.62284 | 3702 ft | 200 kts | 328° |
| 2026-05-06 17:04 | 54.69523 | 8.60891 | 3446 ft | 200 kts | 329° |
| 2026-05-06 17:04 | 54.70659 | 8.59500 | 3192 ft | 199 kts | 329° |
| 2026-05-06 17:05 | 54.71769 | 8.58141 | 3010 ft | 195 kts | 329° |
| 2026-05-06 17:05 | 54.72854 | 8.56811 | 2972 ft | 185 kts | 329° |
| 2026-05-06 17:05 | 54.73864 | 8.55556 | 2972 ft | 176 kts | 329° |
| 2026-05-06 17:05 | 54.74849 | 8.54340 | 2982 ft | 174 kts | 329° |
| 2026-05-06 17:06 | 54.75841 | 8.53122 | 2983 ft | 174 kts | 329° |
| 2026-05-06 17:06 | 54.76822 | 8.51915 | 2986 ft | 174 kts | 329° |
| 2026-05-06 17:06 | 54.77820 | 8.50690 | 2986 ft | 175 kts | 329° |
| 2026-05-06 17:06 | 54.78825 | 8.49457 | 2824 ft | 184 kts | 329° |
| 2026-05-06 17:07 | 54.79883 | 8.48158 | 2602 ft | 189 kts | 329° |
| 2026-05-06 17:07 | 54.80968 | 8.46823 | 2353 ft | 193 kts | 328° |
| 2026-05-06 17:07 | 54.82059 | 8.45480 | 2092 ft | 193 kts | 329° |
| 2026-05-06 17:07 | 54.83152 | 8.44134 | 1826 ft | 191 kts | 329° |
| 2026-05-06 17:08 | 54.84211 | 8.42831 | 1565 ft | 180 kts | 329° |
| 2026-05-06 17:08 | 54.85184 | 8.41633 | 1324 ft | 169 kts | 329° |
| 2026-05-06 17:08 | 54.86122 | 8.40477 | 1094 ft | 159 kts | 329° |
| 2026-05-06 17:08 | 54.86948 | 8.39451 | 966 ft | 127 kts | 329° |
| 2026-05-06 17:09 | 54.87649 | 8.38586 | 729 ft | 118 kts | 329° |
| 2026-05-06 17:09 | 54.88285 | 8.37802 | 572 ft | 106 kts | 329° |
| 2026-05-06 17:09 | 54.88850 | 8.37104 | 464 ft | 89 kts | 329° |
| 2026-05-06 17:09 | 54.89325 | 8.36518 | 334 ft | 79 kts | 329° |
| 2026-05-06 17:10 | 54.89741 | 8.35987 | 217 ft | 70 kts | 329° |
| 2026-05-06 17:10 | 54.90143 | 8.35511 | 119 ft | 69 kts | 332° |
| 2026-05-06 17:10 | 54.90537 | 8.35010 | 35 ft | 70 kts | 327° |
| 2026-05-06 17:10 | 54.90859 | 8.34618 | 31 ft | 45 kts | 328° |
| 2026-05-06 17:11 | 54.91085 | 8.34348 | 28 ft | 32 kts | 322° |
| 2026-05-06 17:11 | 54.91234 | 8.34144 | 27 ft | 29 kts | 324° |
| 2026-05-06 17:11 | 54.91295 | 8.33972 | 27 ft | 12 kts | 252° |
| 2026-05-06 17:11 | 54.91265 | 8.33852 | 27 ft | 10 kts | 248° |
| 2026-05-06 17:12 | 54.91219 | 8.33714 | 25 ft | 21 kts | 243° |
| 2026-05-06 17:12 | 54.91116 | 8.33400 | 27 ft | 29 kts | 233° |
| 2026-05-06 17:12 | 54.91029 | 8.33133 | 27 ft | 22 kts | 246° |
| 2026-05-06 17:12 | 54.91050 | 8.32926 | 26 ft | 18 kts | 300° |
| 2026-05-06 17:13 | 54.91087 | 8.32737 | 26 ft | 18 kts | 294° |
| 2026-05-06 17:13 | 54.91129 | 8.32612 | 25 ft | 0 kts | 311° |